ホニアラ の空港の天気 - METARとTAF

ホニアラ国際空港 ( AGGH / HIR ) - ソロモン諸島 ガダルカナル島ホニアラ
飛行場実況気象(Metar)
観測時間08/23 03:00 SBT (08/22 16:00 UTC)
風向・風速南南東 1m/s
視程10km以上
天気現象
少しの雲 雲底高度 430m
少しの雲 雲底高度 460m
全天の4割程度の雲 雲底高度 790m
全天の8割程度の雲 雲底高度 3050m
気温25℃
湿度100%
気圧1009hPa
METARAGGH 221600Z 16002KT 9999 FEW014 FEW015CB SCT026 BKN100 25/25 Q1009
過去の天気等 Google飛行場航空写真 Wunderground天気予報

過去48時間のMETAR

飛行場予報(TAF)
発表時間: 8/22 22:15 SBT (8/22 11:15 UTC)
予報対象時間: 22日23時 SBT ~ 23日23時 SBT
風向・風速東南東 4m/s
視程10km以上
天気現象弱いしゅう雨
全天の4割程度の雲 雲底高度 490m
全天の8割程度の雲 雲底高度 3050m
TAF AGGH 221115Z 2212/2312 11008KT 9999 -SHRA SCT016 BKN100
PROB40 INTER 2212/2219 5000 TSRA SCT015 FEW016CB BKN027 T 25 24 23 26 Q 1010 1008 1007 1009